Flight Track Log - Related Links

Times and Time Zones

All times are in EST time to prevent confusion due to time zone crossing. See the BWA481 flight status page for this flight to view local times or setup timezone preferences in your user account.

Time Position Orientation Groundspeed Altitude Reporting Facility
EST Latitude Longitude Course Direction KTS MPH feet Rate Location/Type
Mon 06:19:51 PM 26.0667 -80.0068 274° West  Level FlightAware Approximate
Mon 06:21:03 PM 26.0750 -80.1344 91° East 159 183 900  Level Miami Center
Mon 06:22:04 PM 26.0742 -80.0742 83° East 197 227 2,700 1,737 Climbing Miami Center
Mon 06:22:19 PM 26.0769 -80.0489 90° East 241 277 3,100 2,480 Climbing Miami Center
Mon 06:23:19 PM 26.0764 -79.9703 96° East 273 314 5,800 2,750 Climbing Miami Center
Mon 06:24:19 PM 26.0681 -79.8750 101° East 290 334 8,600 2,550 Climbing Miami Center
Mon 06:25:19 PM 26.0511 -79.7800 102° East 302 348 10,900 2,300 Climbing Miami Center
Mon 06:26:19 PM 26.0303 -79.6683 101° East 334 384 13,200 2,250 Climbing Miami Center
Mon 06:27:19 PM 26.0094 -79.5525 103° East 362 417 15,400 2,200 Climbing Miami Center
Mon 06:28:19 PM 25.9864 -79.4431 102° East 395 455 17,600 2,050 Climbing Miami Center
Mon 06:29:19 PM 25.9597 -79.3039 102° East 406 467 19,500 1,650 Climbing Miami Center
Mon 06:30:19 PM 25.9347 -79.1694 102° East 421 484 20,900 1,700 Climbing Miami Center
Mon 06:31:19 PM 25.9075 -79.0281 100° East 439 505 22,900 1,850 Climbing Miami Center
Mon 06:32:19 PM 25.8864 -78.9006 104° East 450 518 24,600 1,550 Climbing Miami Center
Mon 06:33:19 PM 25.8547 -78.7639 103° East 461 531 26,000 1,450 Climbing Miami Center
Mon 06:34:19 PM 25.8233 -78.6133 123° Southeast 466 536 27,500 1,350 Climbing Miami Center
Mon 06:35:19 PM 25.7475 -78.4853 127° Southeast 479 551 28,700 1,250 Climbing Miami Center
Mon 06:36:19 PM 25.6589 -78.3528 127° Southeast 484 557 30,000 1,400 Climbing Miami Center
Mon 06:37:19 PM 25.5744 -78.2294 128° Southeast 498 573 31,500 1,250 Climbing Miami Center
Mon 06:38:19 PM 25.4897 -78.1089 128° Southeast 498 573 32,500 1,050 Climbing Miami Center
Mon 06:39:19 PM 25.4011 -77.9814 129° Southeast 508 585 33,600 1,150 Climbing Miami Center
Mon 06:40:19 PM 25.3161 -77.8633 127° Southeast 508 585 34,800 700 Climbing Miami Center
Mon 06:41:19 PM 25.2314 -77.7386 129° Southeast 503 579 35,000 99 Climbing Miami Center
Mon 06:42:20 PM 25.1461 -77.6211 124° Southeast 498 573 35,000  Level Miami Center
Mon 06:43:19 PM 25.0633 -77.4875 121° Southeast 504 580 35,000  Level Miami Center
Mon 06:44:20 PM 24.9906 -77.3517 113° Southeast 516 594 35,000  Level Miami Center
Mon 06:45:19 PM 24.9347 -77.2094 114° Southeast 511 588 35,000  Level Miami Center
Mon 06:46:19 PM 24.8764 -77.0672 115° Southeast 504 580 35,000  Level Miami Center
Mon 06:47:19 PM 24.8181 -76.9275 123° Southeast 504 580 35,000  Level Miami Center
Mon 06:48:20 PM 24.7428 -76.8017 122° Southeast 499 574 35,000  Level Miami Center
Mon 06:49:20 PM 24.6694 -76.6714 123° Southeast 499 574 35,000  Level Miami Center
Mon 06:50:19 PM 24.5939 -76.5411 121° Southeast 499 574 35,000  Level Miami Center
Mon 06:51:20 PM 24.5225 -76.4111 122° Southeast 504 580 35,000  Level Miami Center
Mon 06:52:19 PM 24.4511 -76.2836 123° Southeast 504 580 35,000  Level Miami Center
Mon 06:53:20 PM 24.3753 -76.1539 124° Southeast 497 572 35,000  Level Miami Center
Mon 06:54:20 PM 24.2994 -76.0289 122° Southeast 497 572 35,000  Level Miami Center
Mon 06:55:19 PM 24.2256 -75.8994 123° Southeast 497 572 35,000  Level Miami Center
Mon 06:56:20 PM 24.1494 -75.7703 123° Southeast 504 580 35,000  Level Miami Center
Mon 06:57:19 PM 24.0817 -75.6547 123° Southeast 504 580 35,000  Level Miami Center
Mon 06:58:19 PM 24.0053 -75.5236 123° Southeast 504 580 35,000  Level Miami Center
Mon 06:59:19 PM 23.9308 -75.3972 123° Southeast 504 580 35,000  Level Miami Center
Mon 07:00:19 PM 23.8544 -75.2708 124° Southeast 504 580 35,000  Level Miami Center
Mon 07:01:19 PM 23.7756 -75.1422 123° Southeast 504 580 35,000  Level Miami Center
Mon 07:02:19 PM 23.7008 -75.0161 123° Southeast 504 580 35,000  Level Miami Center
Mon 07:03:20 PM 23.6242 -74.8881 123° Southeast 498 573 35,000  Level Miami Center
Mon 07:04:19 PM 23.5492 -74.7625 123° Southeast 498 573 35,000  Level Miami Center
Mon 07:05:20 PM 23.4722 -74.6344 124° Southeast 503 579 35,000  Level Miami Center
Mon 07:06:20 PM 23.3972 -74.5136 123° Southeast 498 573 35,000  Level Miami Center
Mon 07:07:20 PM 23.3219 -74.3861 124° Southeast 498 573 35,000  Level Miami Center
Mon 07:08:19 PM 23.2447 -74.2611 124° Southeast 503 579 35,000  Level Miami Center
Mon 07:09:20 PM 23.1694 -74.1383 123° Southeast 503 579 35,000  Level Miami Center
Mon 07:10:19 PM 23.0939 -74.0133 123° Southeast 498 573 35,000  Level Miami Center
Mon 07:11:19 PM 23.0183 -73.8886 123° Southeast 498 573 35,000  Level Miami Center
Mon 07:12:19 PM 22.9450 -73.7642 125° Southeast 498 573 35,000  Level Miami Center
Mon 07:13:20 PM 22.8650 -73.6397 122° Southeast 503 579 35,000  Level Miami Center
Mon 07:14:19 PM 22.7911 -73.5133 124° Southeast 503 579 35,000  Level Miami Center
Mon 07:15:19 PM 22.7067 -73.3781 125° Southeast 498 573 35,000  Level Miami Center
Mon 07:16:19 PM 22.6267 -73.2564 122° Southeast 498 573 35,000  Level Miami Center
Mon 07:17:19 PM 22.5678 -73.1547 124° Southeast 503 579 35,000  Level Miami Center
Mon 07:18:19 PM 22.4831 -73.0200 124° Southeast 498 573 35,000  Level Miami Center
Mon 07:19:19 PM 22.4089 -72.8989 124° Southeast 498 573 35,000  Level Miami Center
Mon 07:20:19 PM 22.3306 -72.7756 124° Southeast 503 579 35,000  Level Miami Center
Mon 07:21:19 PM 22.2561 -72.6544 124° Southeast 498 573 35,000  Level Miami Center
Mon 07:22:19 PM 22.1819 -72.5358 123° Southeast 493 567 35,000  Level Miami Center
Mon 07:23:19 PM 22.1072 -72.4128 124° Southeast 493 567 35,000  Level Miami Center
Mon 07:24:19 PM 22.0328 -72.2944 124° Southeast 488 562 35,000  Level Miami Center
Mon 07:25:19 PM 21.9561 -72.1717 125° Southeast 488 562 35,000  Level Miami Center
Mon 07:26:19 PM 21.8772 -72.0517 124° Southeast 488 562 35,000  Level Miami Center
Mon 07:27:19 PM 21.8003 -71.9292 124° Southeast 488 562 35,000  Level Miami Center
Mon 07:28:19 PM 21.7253 -71.8092 124° Southeast 488 562 35,000  Level Miami Center
Mon 07:29:19 PM 21.6483 -71.6872 125° Southeast 488 562 35,000  Level Miami Center
Mon 07:30:19 PM 21.5692 -71.5675 124° Southeast 488 562 35,000  Level Miami Center
Mon 07:31:19 PM 21.4939 -71.4456 126° Southeast 488 562 35,000  Level Miami Center
Mon 07:32:19 PM 21.4147 -71.3286 125° Southeast 488 562 35,000  Level Miami Center
Mon 07:33:19 PM 21.3283 -71.1942 124° Southeast 493 567 35,000  Level Miami Center
Mon 07:34:19 PM 21.2508 -71.0728 123° Southeast 499 574 35,000  Level Miami Center
Mon 07:35:19 PM 21.1775 -70.9536 125° Southeast 493 567 35,000  Level Miami Center
Mon 07:36:20 PM 21.1022 -70.8369 124° Southeast 488 562 35,000  Level Miami Center
Mon 07:37:19 PM 21.0286 -70.7203 125° Southeast 482 555 35,000  Level Miami Center
Mon 07:38:19 PM 20.9511 -70.6019 124° Southeast 476 548 35,000  Level Miami Center
Mon 07:39:19 PM 20.8772 -70.4833 126° Southeast 476 548 35,000  Level Miami Center
Mon 07:40:19 PM 20.7994 -70.3672 125° Southeast 476 548 35,000  Level Miami Center
Mon 07:41:19 PM 20.7239 -70.2511 125° Southeast 476 548 35,000  Level Miami Center
Mon 07:42:19 PM 20.6478 -70.1331 124° Southeast 476 548 35,000  Level Miami Center
Mon 07:43:19 PM 20.5739 -70.0150 124° Southeast 476 548 35,000  Level Miami Center
Mon 07:44:19 PM 20.5000 -69.8994 126° Southeast 476 548 35,000  Level Miami Center
Mon 07:45:19 PM 20.4219 -69.7839 125° Southeast 476 548 35,000  Level Miami Center
Mon 07:46:19 PM 20.3458 -69.6686 124° Southeast 476 548 35,000  Level Miami Center
Mon 07:47:19 PM 20.2717 -69.5533 126° Southeast 476 548 35,000  Level Miami Center
Mon 07:48:19 PM 20.1956 -69.4406 125° Southeast 476 548 35,000  Level Miami Center
Mon 07:49:19 PM 20.1192 -69.3233 124° Southeast 481 554 35,000  Level Miami Center
Mon 07:50:19 PM 20.0447 -69.2061 127° Southeast 476 548 35,000  Level Miami Center
Mon 07:51:19 PM 19.9667 -69.0961 123° Southeast 476 548 35,000  Level Miami Center
Mon 07:52:19 PM 19.8942 -68.9792 127° Southeast 476 548 35,000  Level Miami Center
Mon 07:53:19 PM 19.8156 -68.8669 129° Southeast 476 548 35,000  Level Miami Center
Mon 07:54:19 PM 19.7331 -68.7597 125° Southeast 476 548 35,000  Level Miami Center
Mon 07:55:19 PM 19.6564 -68.6456 143° Southeast 481 554 35,000  Level Miami Center
Mon 07:55:52 PM 19.6000 -68.6000 131° Southeast 480 552 35,000  Level San Juan Center
Mon 07:56:52 PM 19.5167 -68.5000 127° Southeast 480 552 35,000  Level San Juan Center
Mon 07:57:53 PM 19.4333 -68.3833 127° Southeast 470 541 35,000  Level San Juan Center
Mon 07:58:53 PM 19.3500 -68.2667 131° Southeast 480 552 35,000  Level San Juan Center
Mon 07:59:54 PM 19.2667 -68.1667 121° Southeast 480 552 35,000  Level San Juan Center
Mon 08:00:54 PM 19.2000 -68.0500 127° Southeast 470 541 35,000  Level San Juan Center
Mon 08:01:54 PM 19.1167 -67.9333 131° Southeast 470 541 35,000  Level San Juan Center
Mon 08:02:54 PM 19.0333 -67.8333 127° Southeast 470 541 35,000  Level San Juan Center
Mon 08:03:55 PM 18.9500 -67.7167 131° Southeast 470 541 35,000  Level San Juan Center
Mon 08:04:55 PM 18.8667 -67.6167 127° Southeast 460 529 35,000  Level San Juan Center
Mon 08:05:56 PM 18.7833 -67.5000 131° Southeast 460 529 35,000  Level San Juan Center
Mon 08:06:56 PM 18.7000 -67.4000 121° Southeast 460 529 35,000  Level San Juan Center
Mon 08:07:57 PM 18.6333 -67.2833 131° Southeast 460 529 35,000  Level San Juan Center
Mon 08:08:57 PM 18.5500 -67.1833 131° Southeast 460 529 35,000  Level San Juan Center
Mon 08:09:57 PM 18.4667 -67.0833 142° Southeast 460 529 35,000  Level San Juan Center
Mon 08:10:58 PM 18.3667 -67.0000 142° Southeast 460 529 35,000  Level San Juan Center
Mon 08:11:58 PM 18.2667 -66.9167 136° Southeast 460 529 35,000  Level San Juan Center
Mon 08:12:58 PM 18.1667 -66.8167 141° Southeast 460 529 35,000  Level San Juan Center
Mon 08:13:58 PM 18.0500 -66.7167 143° Southeast 460 529 35,000  Level San Juan Center
Mon 08:14:59 PM 17.9667 -66.6500 142° Southeast 460 529 35,000  Level San Juan Center
Mon 08:15:59 PM 17.8667 -66.5667 141° Southeast 460 529 35,000  Level San Juan Center
Mon 08:16:59 PM 17.7500 -66.4667 136° Southeast 460 529 35,000  Level San Juan Center
Mon 08:18:00 PM 17.6500 -66.3667 142° Southeast 460 529 35,000  Level San Juan Center
Mon 08:19:00 PM 17.5500 -66.2833 142° Southeast 460 529 35,000  Level San Juan Center
Mon 08:20:00 PM 17.4500 -66.2000 141° Southeast 460 529 35,000  Level San Juan Center
Mon 08:21:01 PM 17.3500 -66.1167 141° Southeast 460 529 35,000  Level San Juan Center
Mon 08:22:01 PM 17.2500 -66.0333 136° Southeast 470 541 35,000  Level San Juan Center
Mon 08:23:02 PM 17.1500 -65.9333 141° Southeast 460 529 35,000  Level San Juan Center
Mon 08:24:02 PM 17.0500 -65.8500 141° Southeast 470 541 35,000  Level San Juan Center
Mon 08:26:03 PM 16.8500 -65.6833 141° Southeast 460 529 35,000  Level San Juan Center
Mon 08:27:03 PM 16.7500 -65.6000 141° Southeast 460 529 35,000  Level San Juan Center
Mon 08:28:03 PM 16.6500 -65.5167 141° Southeast 450 518 35,000  Level San Juan Center
Mon 08:29:03 PM 16.5500 -65.4333 136° Southeast 460 529 35,000  Level San Juan Center
Mon 08:30:04 PM 16.4667 -65.3500 141° Southeast 450 518 35,000  Level San Juan Center
Mon 08:31:04 PM 16.3667 -65.2667 141° Southeast 460 529 35,000  Level San Juan Center
Mon 08:32:05 PM 16.2667 -65.1833 151° Southeast 450 518 35,000  Level San Juan Center
Mon 08:33:05 PM 16.1500 -65.1167 136° Southeast 470 541 35,000  Level San Juan Center
Mon 08:34:06 PM 16.0500 -65.0167 141° Southeast 460 529 35,000  Level San Juan Center
Mon 08:35:06 PM 15.9500 -64.9333 141° Southeast 460 529 35,000  Level San Juan Center
Mon 08:36:06 PM 15.8500 -64.8500 136° Southeast 460 529 35,000  Level San Juan Center
Mon 08:37:06 PM 15.7667 -64.7667 136° Southeast 460 529 35,000  Level San Juan Center
Mon 08:38:07 PM 15.6667 -64.6667 141° Southeast 470 541 35,000  Level San Juan Center
Mon 08:39:07 PM 15.5667 -64.5833 147° Southeast 460 529 35,000  Level San Juan Center
Mon 08:40:08 PM 15.4667 -64.5167 141° Southeast 450 518 35,000  Level San Juan Center
Mon 08:41:08 PM 15.3667 -64.4333 141° Southeast 450 518 35,000  Level San Juan Center
Mon 08:42:09 PM 15.2667 -64.3500 147° Southeast 450 518 35,000  Level San Juan Center
Mon 08:49:51 PM 14.4635 -63.8067 150° Southeast  Level FlightAware Approximate
Mon 08:57:51 PM 13.5966 -63.2941 149° Southeast  Level FlightAware Approximate
Mon 09:05:51 PM 12.7378 -62.7694 149° Southeast  Level FlightAware Approximate
Mon 09:13:51 PM 11.8831 -62.2403 149° Southeast  Level FlightAware Approximate
Mon 09:21:51 PM 11.0275 -61.7134 140° Southeast  Level FlightAware Approximate
Mon 09:29:51 PM 10.6000 -61.3500 140° Southeast  Level FlightAware Approximate

Login

Don't have an account? Register now (free) for customized features, flight alerts, and more!